createdAt,value
2017-07-18T00:01:52.963Z,89.30
2017-07-18T00:04:21.056Z,89.30
2017-07-18T00:06:49.146Z,91.40
2017-07-18T00:09:17.241Z,92.40
2017-07-18T00:11:45.438Z,92.30
2017-07-18T00:14:13.529Z,92.20
2017-07-18T00:16:41.600Z,92.00
2017-07-18T00:19:09.679Z,91.70
2017-07-18T00:21:37.755Z,91.40
2017-07-18T00:24:05.845Z,91.30
2017-07-18T00:26:33.946Z,91.40
2017-07-18T00:29:02.038Z,92.00
2017-07-18T00:31:30.131Z,92.10
2017-07-18T00:33:58.236Z,91.80
2017-07-18T00:36:26.315Z,91.60
2017-07-18T00:38:54.403Z,91.70
2017-07-18T00:41:22.491Z,91.60
2017-07-18T00:43:50.575Z,91.60
2017-07-18T00:46:18.675Z,92.00
2017-07-18T00:48:46.768Z,92.30
2017-07-18T00:51:14.865Z,92.10
2017-07-18T00:53:42.958Z,92.20
2017-07-18T00:56:11.043Z,92.40
2017-07-18T00:58:39.129Z,93.50
2017-07-18T01:01:07.227Z,94.40
2017-07-18T01:03:35.315Z,93.80
2017-07-18T01:06:03.412Z,93.30
2017-07-18T01:08:31.497Z,92.90
2017-07-18T01:10:59.600Z,92.60
2017-07-18T01:13:27.767Z,92.80
2017-07-18T01:15:55.848Z,92.20
2017-07-18T01:18:23.946Z,92.10
2017-07-18T01:20:52.015Z,92.60
2017-07-18T01:23:20.126Z,92.30
2017-07-18T01:25:48.223Z,92.30
2017-07-18T01:28:16.319Z,93.00
2017-07-18T01:30:44.387Z,93.10
2017-07-18T01:33:12.483Z,92.80
2017-07-18T01:35:40.587Z,92.90
2017-07-18T01:38:08.671Z,93.20
2017-07-18T01:40:36.756Z,94.60
2017-07-18T01:43:04.836Z,93.80
2017-07-18T01:45:32.941Z,93.50
2017-07-18T01:48:01.027Z,93.10
2017-07-18T01:50:29.139Z,93.40
2017-07-18T01:52:57.222Z,94.70
2017-07-18T01:55:25.535Z,95.10
2017-07-18T01:57:53.618Z,95.30
2017-07-18T02:00:21.724Z,95.50
2017-07-18T02:02:49.811Z,95.90
2017-07-18T02:05:17.901Z,96.50
2017-07-18T02:07:46.001Z,96.70
2017-07-18T02:10:14.093Z,97.20
2017-07-18T02:12:42.183Z,96.50
2017-07-18T02:15:10.259Z,95.20
2017-07-18T02:17:38.356Z,94.70
2017-07-18T02:20:06.444Z,94.40
2017-07-18T02:22:34.538Z,94.70
2017-07-18T02:25:02.616Z,94.70
2017-07-18T02:27:30.706Z,94.40
2017-07-18T02:29:58.796Z,94.00
2017-07-18T02:32:26.880Z,94.50
2017-07-18T02:34:55.296Z,94.20
2017-07-18T02:37:23.375Z,94.20
2017-07-18T02:39:51.478Z,94.30
2017-07-18T02:42:19.557Z,94.00
2017-07-18T02:44:47.655Z,93.60
2017-07-18T02:47:15.953Z,93.80
2017-07-18T02:49:44.042Z,94.50
2017-07-18T02:52:12.124Z,94.90
2017-07-18T02:54:40.281Z,95.60
2017-07-18T02:57:08.372Z,96.20
2017-07-18T02:59:36.456Z,96.40
2017-07-18T03:02:04.547Z,97.40
2017-07-18T03:04:32.638Z,98.70
2017-07-18T03:07:00.739Z,98.70
2017-07-18T03:09:28.823Z,98.70
2017-07-18T03:11:56.919Z,99.10
2017-07-18T03:14:25.020Z,98.90
2017-07-18T03:16:53.108Z,98.30
2017-07-18T03:19:21.214Z,97.80
2017-07-18T03:21:49.484Z,97.40
2017-07-18T03:24:29.445Z,96.30
2017-07-18T03:26:57.544Z,96.00
2017-07-18T03:29:25.643Z,96.30
2017-07-18T03:31:53.719Z,96.80
2017-07-18T03:34:21.868Z,96.30
2017-07-18T03:36:49.959Z,96.20
2017-07-18T03:39:18.059Z,96.30
2017-07-18T03:41:46.139Z,99.00
2017-07-18T03:44:14.227Z,99.30
2017-07-18T03:46:42.476Z,97.90
2017-07-18T03:49:10.568Z,97.50
2017-07-18T03:51:38.659Z,97.00
2017-07-18T03:54:06.753Z,97.90
2017-07-18T03:56:34.835Z,97.40
2017-07-18T03:59:02.911Z,96.80
2017-07-18T04:01:30.999Z,96.70
2017-07-18T04:03:59.079Z,96.90
2017-07-18T04:06:27.163Z,96.50
2017-07-18T04:08:55.243Z,96.60
2017-07-18T04:11:23.321Z,96.50
2017-07-18T04:13:51.424Z,95.70
2017-07-18T04:16:19.500Z,95.00
2017-07-18T04:18:47.588Z,95.00
2017-07-18T04:21:15.679Z,95.10
2017-07-18T04:23:43.868Z,95.20
2017-07-18T04:26:11.989Z,95.50
2017-07-18T04:28:40.082Z,95.90
2017-07-18T04:31:08.157Z,95.60
2017-07-18T04:33:36.244Z,94.90
2017-07-18T04:36:04.317Z,95.00
2017-07-18T04:38:32.403Z,95.50
2017-07-18T04:41:00.483Z,96.40
2017-07-18T04:43:28.568Z,96.70
2017-07-18T04:45:56.649Z,96.60
2017-07-18T04:48:24.739Z,96.30
2017-07-18T04:50:52.821Z,96.10
2017-07-18T04:53:20.940Z,95.30
2017-07-18T04:55:49.032Z,95.20
2017-07-18T04:58:17.112Z,94.90
2017-07-18T05:00:45.201Z,94.10
2017-07-18T05:03:13.461Z,93.70
2017-07-18T05:05:41.555Z,93.20
2017-07-18T05:08:09.636Z,92.90
2017-07-18T05:10:37.722Z,92.30
2017-07-18T05:13:05.791Z,92.00
2017-07-18T05:15:33.948Z,91.30
2017-07-18T05:18:02.053Z,91.20
2017-07-18T05:20:30.134Z,90.70
2017-07-18T05:22:58.235Z,90.60
2017-07-18T05:25:26.295Z,90.30
2017-07-18T05:27:54.395Z,89.10
2017-07-18T05:30:22.476Z,88.50
2017-07-18T05:32:50.576Z,87.50
2017-07-18T05:35:18.661Z,86.80
2017-07-18T05:37:46.741Z,86.70
2017-07-18T05:40:14.826Z,86.40
2017-07-18T05:42:42.901Z,85.30
2017-07-18T05:45:11.059Z,83.20
2017-07-18T05:47:39.144Z,82.60
2017-07-18T05:50:07.227Z,81.30
2017-07-18T05:52:35.316Z,80.40
2017-07-18T05:55:03.410Z,79.50
2017-07-18T05:57:31.486Z,79.70
2017-07-18T05:59:59.578Z,79.00
2017-07-18T06:02:27.664Z,78.70
2017-07-18T06:04:56.251Z,78.60
2017-07-18T06:07:24.359Z,77.50
2017-07-18T06:09:52.623Z,77.70
2017-07-18T06:12:20.722Z,77.50
2017-07-18T06:14:48.802Z,77.10
2017-07-18T06:17:16.881Z,77.50
2017-07-18T06:19:44.954Z,75.60
2017-07-18T06:22:13.043Z,74.90
2017-07-18T06:24:41.155Z,74.00
2017-07-18T06:27:09.251Z,73.40
2017-07-18T06:29:37.735Z,72.50
2017-07-18T06:32:05.816Z,71.90
2017-07-18T06:34:33.903Z,69.90
2017-07-18T06:37:01.984Z,70.70
2017-07-18T06:39:30.067Z,68.40
2017-07-18T06:41:58.142Z,67.30
2017-07-18T06:44:26.235Z,69.20
2017-07-18T06:46:54.305Z,66.00
2017-07-18T06:49:22.378Z,68.10
2017-07-18T06:51:50.446Z,66.30
2017-07-18T06:54:18.525Z,64.90
2017-07-18T06:56:46.594Z,63.50
2017-07-18T06:59:14.677Z,64.50
2017-07-18T07:01:42.744Z,64.80
2017-07-18T07:04:10.812Z,63.60
2017-07-18T07:06:38.897Z,63.50
2017-07-18T07:09:06.972Z,61.70
2017-07-18T07:11:35.059Z,61.10
2017-07-18T07:14:03.138Z,62.10
2017-07-18T07:16:31.232Z,60.10
2017-07-18T07:18:59.306Z,58.80
2017-07-18T07:21:27.397Z,59.90
2017-07-18T07:23:55.475Z,59.20
2017-07-18T07:26:23.556Z,59.20
2017-07-18T07:28:51.625Z,60.80
2017-07-18T07:31:19.694Z,60.10
2017-07-18T07:33:47.777Z,58.40
2017-07-18T07:36:16.094Z,58.50
2017-07-18T07:38:44.167Z,58.10
2017-07-18T07:41:12.241Z,56.80
2017-07-18T07:43:40.322Z,55.70
2017-07-18T07:46:08.395Z,56.60
2017-07-18T07:48:36.479Z,55.50
2017-07-18T07:51:04.570Z,56.60
2017-07-18T07:53:33.475Z,56.40
2017-07-18T07:56:01.555Z,55.40
2017-07-18T07:58:29.636Z,53.60
2017-07-18T08:00:57.712Z,52.80
2017-07-18T08:03:25.788Z,52.90
2017-07-18T08:05:54.073Z,54.20
2017-07-18T08:08:22.156Z,53.70
2017-07-18T08:10:50.227Z,52.60
2017-07-18T08:13:18.297Z,52.90
2017-07-18T08:15:46.383Z,52.70
2017-07-18T08:18:14.456Z,50.80
2017-07-18T08:20:42.547Z,49.50
2017-07-18T08:23:10.638Z,49.80
2017-07-18T08:25:38.728Z,48.50
2017-07-18T08:28:06.795Z,48.70
2017-07-18T08:30:34.899Z,48.00
2017-07-18T08:33:02.975Z,48.50
2017-07-18T08:35:31.068Z,49.70
2017-07-18T08:37:59.147Z,48.80
2017-07-18T08:40:27.232Z,46.80
2017-07-18T08:42:55.324Z,45.10
2017-07-18T08:45:24.173Z,45.30
2017-07-18T08:47:52.256Z,46.10
2017-07-18T08:50:20.340Z,45.40
2017-07-18T08:52:48.431Z,44.50
2017-07-18T08:55:16.495Z,43.20
2017-07-18T08:57:44.571Z,43.30
2017-07-18T09:00:12.642Z,41.50
2017-07-18T09:02:40.723Z,40.50
2017-07-18T09:05:08.795Z,40.80
2017-07-18T09:07:36.879Z,44.40
2017-07-18T09:10:04.944Z,43.40
2017-07-18T09:12:33.026Z,42.90
2017-07-18T09:15:01.108Z,43.40
2017-07-18T09:17:29.176Z,44.40
2017-07-18T09:19:57.263Z,44.90
2017-07-18T09:22:25.327Z,44.10
2017-07-18T09:24:53.410Z,43.50
2017-07-18T09:27:21.479Z,44.90
2017-07-18T09:29:49.580Z,41.90
2017-07-18T09:32:17.650Z,41.20
2017-07-18T09:34:45.728Z,39.70
2017-07-18T09:37:13.803Z,40.00
2017-07-18T09:39:41.882Z,40.00
2017-07-18T09:42:09.959Z,37.90
2017-07-18T09:44:38.035Z,37.80
2017-07-18T09:47:06.144Z,37.30
2017-07-18T09:49:34.230Z,37.60
2017-07-18T09:52:02.294Z,36.80
2017-07-18T09:54:30.371Z,38.70
2017-07-18T09:56:58.456Z,40.80
2017-07-18T09:59:26.537Z,39.40
2017-07-18T10:01:54.607Z,38.20
2017-07-18T10:04:22.695Z,36.90
2017-07-18T10:06:50.772Z,36.30
2017-07-18T10:09:18.854Z,36.70
2017-07-18T10:11:46.930Z,39.60
2017-07-18T10:14:15.011Z,40.50
2017-07-18T10:16:43.097Z,38.10
2017-07-18T10:19:11.183Z,36.40
2017-07-18T10:21:39.260Z,35.40
2017-07-18T10:24:07.333Z,34.60
2017-07-18T10:26:35.411Z,32.80
2017-07-18T10:29:03.482Z,33.10
2017-07-18T10:31:31.556Z,34.10
2017-07-18T10:33:59.646Z,31.90
2017-07-18T10:36:27.722Z,31.40
2017-07-18T10:38:55.800Z,31.60
2017-07-18T10:41:23.879Z,30.20
2017-07-18T10:43:51.951Z,30.80
2017-07-18T10:46:20.035Z,31.70
2017-07-18T10:48:48.103Z,33.50
2017-07-18T10:51:16.192Z,34.90
2017-07-18T10:53:44.265Z,36.30
2017-07-18T10:56:12.358Z,35.90
2017-07-18T10:58:40.435Z,33.50
2017-07-18T11:01:08.510Z,35.00
2017-07-18T11:03:36.591Z,35.90
2017-07-18T11:06:04.670Z,36.30
2017-07-18T11:08:32.756Z,37.50
2017-07-18T11:11:00.826Z,36.00
2017-07-18T11:13:28.922Z,33.50
2017-07-18T11:15:57.017Z,32.80
2017-07-18T11:18:25.100Z,32.60
2017-07-18T11:20:53.194Z,32.20
2017-07-18T11:23:21.285Z,33.80
2017-07-18T11:25:49.360Z,34.20
2017-07-18T11:28:17.435Z,34.10
2017-07-18T11:30:45.523Z,35.40
2017-07-18T11:33:13.612Z,36.10
2017-07-18T11:35:41.713Z,37.20
2017-07-18T11:38:09.789Z,37.60
2017-07-18T11:40:38.208Z,35.70
2017-07-18T11:43:06.286Z,34.10
2017-07-18T11:45:34.363Z,34.40
2017-07-18T11:48:02.446Z,35.10
2017-07-18T11:50:30.534Z,36.00
2017-07-18T11:52:58.614Z,37.10
2017-07-18T11:55:26.708Z,33.90
2017-07-18T11:57:54.792Z,32.70
2017-07-18T12:00:22.872Z,31.60
2017-07-18T12:02:50.950Z,31.40
2017-07-18T12:05:19.023Z,32.00
2017-07-18T12:07:47.113Z,29.90
2017-07-18T12:10:15.189Z,28.90
2017-07-18T12:12:43.269Z,28.90
2017-07-18T12:15:11.338Z,28.90
2017-07-18T12:17:39.446Z,28.30
2017-07-18T12:20:07.519Z,28.70
2017-07-18T12:22:35.595Z,29.10
2017-07-18T12:25:03.666Z,29.90
2017-07-18T12:27:31.759Z,29.80
2017-07-18T12:29:59.827Z,30.90
2017-07-18T12:32:27.908Z,32.70
2017-07-18T12:34:55.995Z,32.40
2017-07-18T12:37:24.086Z,33.50
2017-07-18T12:39:52.165Z,33.30
2017-07-18T12:42:20.250Z,34.70
2017-07-18T12:44:48.332Z,36.20
2017-07-18T12:47:16.407Z,35.90
2017-07-18T12:49:44.499Z,36.00
2017-07-18T12:52:12.575Z,35.90
2017-07-18T12:54:40.663Z,35.10
2017-07-18T12:57:08.747Z,33.30
2017-07-18T12:59:36.835Z,33.10
2017-07-18T13:02:04.911Z,33.20
2017-07-18T13:04:32.978Z,33.70
2017-07-18T13:07:01.063Z,35.10
2017-07-18T13:09:29.136Z,35.80
2017-07-18T13:11:57.211Z,36.40
2017-07-18T13:14:25.291Z,35.60
2017-07-18T13:16:53.390Z,35.10
2017-07-18T13:19:21.481Z,33.60
2017-07-18T13:21:49.556Z,32.30
2017-07-18T13:24:17.627Z,32.40
2017-07-18T13:26:45.718Z,31.60
2017-07-18T13:29:13.788Z,29.90
2017-07-18T13:31:41.856Z,30.00
2017-07-18T13:34:09.931Z,30.80
2017-07-18T13:36:38.005Z,33.00
2017-07-18T13:39:06.083Z,32.20
2017-07-18T13:41:34.151Z,31.70
2017-07-18T13:44:02.238Z,31.80
2017-07-18T13:46:30.318Z,31.80
2017-07-18T13:48:58.411Z,31.90
2017-07-18T13:51:26.488Z,32.30
2017-07-18T13:53:54.565Z,33.50
2017-07-18T13:56:22.651Z,33.60
2017-07-18T13:58:50.719Z,32.40
2017-07-18T14:01:18.799Z,32.50
2017-07-18T14:03:46.862Z,32.00
2017-07-18T14:06:14.955Z,32.20
2017-07-18T14:08:43.047Z,31.80
2017-07-18T14:11:11.134Z,31.40
2017-07-18T14:13:39.204Z,32.90
2017-07-18T14:16:07.282Z,34.40
2017-07-18T14:18:35.362Z,34.60
2017-07-18T14:21:03.434Z,33.40
2017-07-18T14:23:31.508Z,32.80
2017-07-18T14:25:59.605Z,33.00
2017-07-18T14:28:27.680Z,33.30
2017-07-18T14:30:55.751Z,34.20
2017-07-18T14:33:23.823Z,34.90
2017-07-18T14:35:51.898Z,34.60
2017-07-18T14:38:19.970Z,35.00
2017-07-18T14:40:48.035Z,35.30
2017-07-18T14:43:16.114Z,35.10
2017-07-18T14:45:44.408Z,35.20
2017-07-18T14:48:12.471Z,35.50
2017-07-18T14:50:40.548Z,35.20
2017-07-18T14:53:08.636Z,36.30
2017-07-18T14:55:36.733Z,36.20
2017-07-18T14:58:04.817Z,37.30
2017-07-18T15:00:32.904Z,37.70
2017-07-18T15:03:00.975Z,37.80
2017-07-18T15:05:29.063Z,37.80
2017-07-18T15:07:57.141Z,38.20
2017-07-18T15:10:25.231Z,38.00
2017-07-18T15:12:53.314Z,38.20
2017-07-18T15:15:21.392Z,37.70
2017-07-18T15:17:49.479Z,37.80
2017-07-18T15:20:17.564Z,36.30
2017-07-18T15:22:45.635Z,36.20
2017-07-18T15:25:13.723Z,37.10
2017-07-18T15:27:41.819Z,36.90
2017-07-18T15:30:09.901Z,35.80
2017-07-18T15:32:37.993Z,35.50
2017-07-18T15:35:06.080Z,36.20
2017-07-18T15:37:34.159Z,36.60
2017-07-18T15:40:02.235Z,36.10
2017-07-18T15:42:30.319Z,35.90
2017-07-18T15:44:58.391Z,36.30
2017-07-18T15:47:26.479Z,36.60
2017-07-18T15:49:54.574Z,37.50
2017-07-18T15:52:22.643Z,37.50
2017-07-18T15:54:50.724Z,38.00
2017-07-18T15:57:18.795Z,37.70
2017-07-18T15:59:46.889Z,37.80
2017-07-18T16:02:14.966Z,38.80
2017-07-18T16:04:43.072Z,38.90
2017-07-18T16:07:11.357Z,38.50
2017-07-18T16:09:39.450Z,39.10
2017-07-18T16:12:07.756Z,39.20
2017-07-18T16:14:35.835Z,39.50
2017-07-18T16:17:03.922Z,39.10
2017-07-18T16:19:31.996Z,39.20
2017-07-18T16:22:00.072Z,39.60
2017-07-18T16:24:28.143Z,39.00
2017-07-18T16:26:56.228Z,39.00
2017-07-18T16:29:24.311Z,38.20
2017-07-18T16:31:52.400Z,38.40
2017-07-18T16:34:20.526Z,36.90
2017-07-18T16:36:48.617Z,37.00
2017-07-18T16:39:16.677Z,37.10
2017-07-18T16:41:44.748Z,37.90
2017-07-18T16:44:12.818Z,38.70
2017-07-18T16:46:40.911Z,38.40
2017-07-18T16:49:09.003Z,39.10
2017-07-18T16:51:37.080Z,38.90
2017-07-18T16:54:05.182Z,38.70
2017-07-18T16:56:33.276Z,39.40
2017-07-18T16:59:01.364Z,39.60
2017-07-18T17:01:29.447Z,39.20
2017-07-18T17:03:57.525Z,39.20
2017-07-18T17:06:25.616Z,39.50
2017-07-18T17:08:53.692Z,39.80
2017-07-18T17:11:21.777Z,39.20
2017-07-18T17:13:49.846Z,39.10
2017-07-18T17:16:17.952Z,39.40
2017-07-18T17:18:46.036Z,39.60
2017-07-18T17:21:14.115Z,39.60
2017-07-18T17:23:42.192Z,39.10
2017-07-18T17:26:10.268Z,39.20
2017-07-18T17:28:38.346Z,39.70
2017-07-18T17:31:06.439Z,39.30
2017-07-18T17:33:34.523Z,39.70
2017-07-18T17:36:02.603Z,39.80
2017-07-18T17:38:30.700Z,39.80
2017-07-18T17:40:58.771Z,40.10
2017-07-18T17:43:26.866Z,40.80
2017-07-18T17:45:54.938Z,40.80
2017-07-18T17:48:23.027Z,41.50
2017-07-18T17:50:51.110Z,42.00
2017-07-18T17:53:19.208Z,43.10
2017-07-18T17:55:47.299Z,43.10
2017-07-18T17:58:15.380Z,42.80
2017-07-18T18:00:43.468Z,42.60
2017-07-18T18:03:11.544Z,43.20
2017-07-18T18:05:39.632Z,43.10
2017-07-18T18:08:07.713Z,43.20
2017-07-18T18:10:35.801Z,43.10
2017-07-18T18:13:03.874Z,43.10
2017-07-18T18:15:31.955Z,43.10
2017-07-18T18:18:00.043Z,43.20
2017-07-18T18:20:28.106Z,43.50
2017-07-18T18:22:56.208Z,43.30
2017-07-18T18:25:24.281Z,44.00
2017-07-18T18:27:52.359Z,43.90
2017-07-18T18:30:20.443Z,44.00
2017-07-18T18:32:48.532Z,43.90
2017-07-18T18:35:16.604Z,44.20
2017-07-18T18:37:44.702Z,43.90
2017-07-18T18:40:12.773Z,44.60
2017-07-18T18:42:40.843Z,44.50
2017-07-18T18:45:08.978Z,44.80
2017-07-18T18:47:37.131Z,45.10
2017-07-18T18:50:05.321Z,45.30
2017-07-18T18:52:33.397Z,45.50
2017-07-18T18:55:01.488Z,45.70
2017-07-18T18:57:29.554Z,46.20
2017-07-18T18:59:57.644Z,46.60
2017-07-18T19:02:25.714Z,46.60
2017-07-18T19:04:53.810Z,46.80
2017-07-18T19:07:21.880Z,47.00
2017-07-18T19:09:49.958Z,47.40
2017-07-18T19:12:18.040Z,47.50
2017-07-18T19:14:46.153Z,47.90
2017-07-18T19:17:14.256Z,48.00
2017-07-18T19:19:42.335Z,48.20
2017-07-18T19:22:10.407Z,48.50
2017-07-18T19:24:38.480Z,48.70
2017-07-18T19:27:06.576Z,48.90
2017-07-18T19:29:34.660Z,49.00
2017-07-18T19:32:02.749Z,49.20
2017-07-18T19:34:30.828Z,49.30
2017-07-18T19:36:58.930Z,49.50
2017-07-18T19:39:27.014Z,49.60
2017-07-18T19:41:55.091Z,49.90
2017-07-18T19:44:23.225Z,50.10
2017-07-18T19:46:51.347Z,50.70
2017-07-18T19:49:19.482Z,50.20
2017-07-18T19:51:47.678Z,50.20
2017-07-18T19:54:15.954Z,50.50
2017-07-18T19:56:44.033Z,51.20
2017-07-18T19:59:12.381Z,51.10
2017-07-18T20:01:40.446Z,50.80
2017-07-18T20:04:08.638Z,51.10
2017-07-18T20:06:36.723Z,51.50
2017-07-18T20:09:04.858Z,51.60
2017-07-18T20:11:32.956Z,51.70
2017-07-18T20:14:01.066Z,52.10
2017-07-18T20:16:29.143Z,52.40
2017-07-18T20:18:57.271Z,52.90
2017-07-18T20:21:25.352Z,53.10
2017-07-18T20:23:53.483Z,53.10
2017-07-18T20:26:21.690Z,53.10
2017-07-18T20:28:49.812Z,53.10
2017-07-18T20:31:17.883Z,53.00
2017-07-18T20:33:45.966Z,53.20
2017-07-18T20:36:14.039Z,53.60
2017-07-18T20:38:42.119Z,53.70
2017-07-18T20:41:10.194Z,54.10
2017-07-18T20:43:38.325Z,54.50
2017-07-18T20:46:06.385Z,54.40
2017-07-18T20:48:34.469Z,54.40
2017-07-18T20:51:02.531Z,54.60
2017-07-18T20:53:30.635Z,55.10
2017-07-18T20:55:58.702Z,54.70
2017-07-18T20:58:26.773Z,55.10
2017-07-18T21:00:54.851Z,55.20
2017-07-18T21:03:22.937Z,55.00
2017-07-18T21:05:51.027Z,55.00
2017-07-18T21:08:19.101Z,55.30
2017-07-18T21:10:47.183Z,55.30
2017-07-18T21:13:15.274Z,55.70
2017-07-18T21:15:43.372Z,55.60
2017-07-18T21:18:11.448Z,55.40
2017-07-18T21:20:39.540Z,55.50
2017-07-18T21:23:07.628Z,55.70
2017-07-18T21:25:35.707Z,55.60
2017-07-18T21:28:03.783Z,55.80
2017-07-18T21:30:31.858Z,56.00
2017-07-18T21:32:59.934Z,56.20
2017-07-18T21:35:28.033Z,56.00
2017-07-18T21:37:56.107Z,56.20
2017-07-18T21:40:24.186Z,56.40
2017-07-18T21:42:52.266Z,56.70
2017-07-18T21:45:20.339Z,56.70
2017-07-18T21:47:48.432Z,57.30
2017-07-18T21:50:16.509Z,57.60
2017-07-18T21:52:44.598Z,57.70
2017-07-18T21:55:12.669Z,57.90
2017-07-18T21:57:40.754Z,58.00
2017-07-18T22:00:08.840Z,58.20
2017-07-18T22:02:36.911Z,58.10
2017-07-18T22:05:05.003Z,58.20
2017-07-18T22:07:33.083Z,58.60
2017-07-18T22:10:01.171Z,58.20
2017-07-18T22:12:29.247Z,58.30
2017-07-18T22:14:57.326Z,58.60
2017-07-18T22:17:25.400Z,58.30
2017-07-18T22:19:53.463Z,58.20
2017-07-18T22:22:21.543Z,58.40
2017-07-18T22:24:49.607Z,58.40
2017-07-18T22:27:17.810Z,58.60
2017-07-18T22:29:45.999Z,58.50
2017-07-18T22:32:14.084Z,58.80
2017-07-18T22:34:42.162Z,58.90
2017-07-18T22:37:10.249Z,61.30
2017-07-18T22:39:38.323Z,62.50
2017-07-18T22:42:06.423Z,63.10
2017-07-18T22:44:34.495Z,63.60
2017-07-18T22:47:02.570Z,63.60
2017-07-18T22:49:30.666Z,64.70
2017-07-18T22:51:58.740Z,65.80
2017-07-18T22:54:26.818Z,65.70
2017-07-18T22:56:54.914Z,66.30
2017-07-18T22:59:22.988Z,66.80
2017-07-18T23:01:51.069Z,66.90
2017-07-18T23:04:19.155Z,66.90
2017-07-18T23:06:47.230Z,66.80
2017-07-18T23:09:15.311Z,67.20
2017-07-18T23:11:43.391Z,67.80
2017-07-18T23:14:11.479Z,68.40
2017-07-18T23:16:39.559Z,68.20
2017-07-18T23:19:07.636Z,67.70
2017-07-18T23:21:35.714Z,67.60
2017-07-18T23:24:03.801Z,68.10
2017-07-18T23:26:32.019Z,67.60
2017-07-18T23:29:00.105Z,67.60
2017-07-18T23:31:28.181Z,68.60
2017-07-18T23:33:56.251Z,69.20
2017-07-18T23:36:24.328Z,68.60
2017-07-18T23:38:52.405Z,68.60
2017-07-18T23:41:20.474Z,68.40
2017-07-18T23:43:48.571Z,67.00
2017-07-18T23:46:16.650Z,66.70
2017-07-18T23:48:44.731Z,65.30
2017-07-18T23:51:12.834Z,64.50
2017-07-18T23:53:40.959Z,65.50
2017-07-18T23:56:09.039Z,67.50
2017-07-18T23:58:37.120Z,68.30
